Time;durP1;ratioP1;P1;durP2;ratioP2;P2;SDS_P1;SDS_P2;PMS_P1;PMS_P2;Temp;Humidity;BMP_temperature;BMP_pressure;BME280_temperature;BME280_humidity;BME280_pressure;Samples;Min_cycle;Max_cycle;Signal;HPM_P1;HPM_P2
2022/08/12 00:43:53;;;;;;;;;19.00;17.25;;;;;24.50;39.48;101396.22;5071130;28;50234;-70
2022/08/12 00:46:30;;;;;;;;;19.50;18.50;;;;;24.53;39.49;101412.28;5071467;28;50054;-70
2022/08/12 00:48:57;;;;;;;;;20.00;18.75;;;;;24.51;39.42;101403.34;5071502;28;50379;-70
2022/08/12 00:52:04;;;;;;;;;18.00;18.00;;;;;24.48;39.85;101403.44;5071904;28;50036;-70
2022/08/12 00:54:09;;;;;;;;;19.50;18.50;;;;;24.25;39.82;101375.38;5067342;28;50865;-69
2022/08/12 00:56:37;;;;;;;;;16.75;16.75;;;;;24.41;39.55;101408.06;5071480;28;49879;-68
2022/08/12 00:59:03;;;;;;;;;17.25;17.25;;;;;24.15;39.77;101362.25;5071312;28;49953;-70
2022/08/12 01:01:29;;;;;;;;;21.25;20.00;;;;;24.37;39.80;101409.09;5071339;28;49976;-70
2022/08/12 01:12:11;;;;;;;;;20.25;17.75;;;;;24.10;40.04;101365.03;5071395;28;49782;-71
2022/08/12 01:14:37;;;;;;;;;20.75;20.75;;;;;24.18;40.11;101395.22;5070684;28;50269;-75
2022/08/12 01:17:04;;;;;;;;;18.25;18.25;;;;;24.17;40.23;101392.59;5071239;28;49768;-73
2022/08/12 01:19:30;;;;;;;;;18.75;17.00;;;;;24.13;40.20;101393.59;5071209;28;49937;-73
2022/08/12 01:22:24;;;;;;;;;17.00;16.00;;;;;24.10;40.44;101399.03;5071433;28;49625;-73
2022/08/12 01:25:01;;;;;;;;;19.75;19.75;;;;;24.05;40.66;101400.97;5070863;28;50672;-73
2022/08/12 01:27:28;;;;;;;;;18.50;18.50;;;;;23.93;40.69;101408.41;5070866;28;49914;-72
2022/08/12 01:29:56;;;;;;;;;21.25;21.25;;;;;23.79;40.46;101364.94;5070964;28;50029;-70
2022/08/12 01:32:22;;;;;;;;;22.75;19.00;;;;;23.96;40.74;101399.38;5071041;28;49914;-69
2022/08/12 01:35:04;;;;;;;;;15.25;15.25;;;;;23.93;40.80;101399.44;5070475;28;50505;-71
2022/08/12 01:37:35;;;;;;;;;24.25;21.25;;;;;23.95;40.65;101400.31;5064938;28;49712;-69
2022/08/12 01:40:02;;;;;;;;;17.50;17.50;;;;;23.68;40.70;101354.47;5070786;28;49905;-72
2022/08/12 01:42:32;;;;;;;;;21.50;19.25;;;;;23.85;40.72;101380.00;5071053;28;49680;-72
2022/08/12 01:44:58;;;;;;;;;20.25;20.00;;;;;23.79;40.75;101374.78;5070304;28;49797;-69
2022/08/12 01:47:29;;;;;;;;;22.00;22.00;;;;;23.86;40.98;101393.38;5070828;28;49689;-70
2022/08/12 01:50:29;;;;;;;;;21.00;18.50;;;;;23.84;41.12;101399.69;5070563;28;49850;-69
2022/08/12 01:52:58;;;;;;;;;21.75;19.00;;;;;23.80;41.22;101396.19;5070777;28;49735;-70
2022/08/12 01:55:27;;;;;;;;;20.50;19.00;;;;;23.78;41.15;101397.16;5051983;28;50499;-72
2022/08/12 01:58:10;;;;;;;;;18.50;17.75;;;;;23.73;40.90;101399.03;5070510;28;49769;-69
2022/08/12 02:00:47;;;;;;;;;19.75;18.00;;;;;23.61;41.08;101384.13;5070379;28;49854;-69
2022/08/12 02:12:20;;;;;;;;;18.75;18.00;;;;;23.39;41.78;101387.28;5070158;28;50224;-70
2022/08/12 02:15:11;;;;;;;;;19.75;19.75;;;;;23.24;41.97;101362.59;5069934;28;49846;-70
2022/08/12 02:18:01;;;;;;;;;21.00;19.75;;;;;23.30;42.00;101373.19;5069939;28;51566;-71
2022/08/12 02:20:49;;;;;;;;;18.75;18.75;;;;;23.28;42.02;101375.91;5070156;28;49803;-70
2022/08/12 02:23:18;;;;;;;;;22.50;17.75;;;;;23.24;42.08;101366.16;5070338;28;50179;-70
2022/08/12 02:25:46;;;;;;;;;19.75;19.00;;;;;23.23;42.21;101367.06;5070371;28;49793;-72
2022/08/12 02:28:11;;;;;;;;;17.50;17.50;;;;;23.22;42.40;101369.78;5069913;28;50633;-69
2022/08/12 02:30:38;;;;;;;;;20.75;20.75;;;;;23.14;42.51;101364.59;5051254;28;50036;-72
2022/08/12 02:33:05;;;;;;;;;20.50;19.25;;;;;22.52;42.43;101263.25;5069946;28;49649;-70
2022/08/12 02:35:34;;;;;;;;;18.50;17.50;;;;;23.08;42.77;101365.63;5070265;28;49733;-71
2022/08/12 02:38:03;;;;;;;;;21.00;20.00;;;;;22.83;42.54;101332.22;5069967;28;49791;-73
2022/08/12 02:40:29;;;;;;;;;21.50;18.75;;;;;23.01;42.76;101371.16;5070088;28;49940;-71
2022/08/12 02:43:18;;;;;;;;;21.00;20.00;;;;;22.97;42.84;101366.75;5051486;28;49724;-72
2022/08/12 02:45:58;;;;;;;;;18.50;17.50;;;;;22.93;42.91;101368.63;5071850;28;49864;-73
2022/08/12 02:48:40;;;;;;;;;17.75;17.75;;;;;22.89;43.05;101368.72;5073062;28;49624;-70
2022/08/12 02:51:10;;;;;;;;;22.00;20.00;;;;;22.71;43.39;101348.53;5070020;28;49695;-70
2022/08/12 02:53:37;;;;;;;;;17.00;16.00;;;;;22.79;43.51;101365.31;5073188;28;49768;-73
2022/08/12 02:56:04;;;;;;;;;18.75;16.00;;;;;22.73;43.69;101360.97;5073638;28;49705;-72
2022/08/12 02:58:30;;;;;;;;;19.50;18.75;;;;;22.70;43.75;101357.47;5054731;28;50686;-72
2022/08/12 03:00:59;;;;;;;;;20.50;20.50;;;;;22.77;43.77;101369.78;5073401;28;49686;-72
2022/08/12 03:03:29;;;;;;;;;20.00;20.00;;;;;22.73;43.77;101369.00;5073289;28;49638;-71
2022/08/12 03:06:00;;;;;;;;;20.00;17.25;;;;;22.69;43.66;101353.91;5073318;28;49682;-70
2022/08/12 03:08:30;;;;;;;;;21.25;20.25;;;;;22.77;44.09;101372.47;5072872;28;50726;-72
2022/08/12 03:11:02;;;;;;;;;19.00;18.50;;;;;22.77;44.07;101381.38;5072894;28;49872;-72
2022/08/12 03:13:27;;;;;;;;;18.50;18.50;;;;;22.69;43.93;101361.06;5072980;28;49922;-72
2022/08/12 03:15:54;;;;;;;;;20.50;19.50;;;;;22.73;44.15;101373.47;5073075;28;49620;-73
2022/08/12 03:18:31;;;;;;;;;21.25;20.25;;;;;22.61;43.80;101355.84;5072993;28;49831;-70
2022/08/12 03:20:59;;;;;;;;;23.25;20.00;;;;;22.70;43.78;101376.22;5072985;28;49656;-72
2022/08/12 03:23:25;;;;;;;;;17.00;17.00;;;;;22.45;43.74;101346.34;5073101;28;49953;-73
2022/08/12 03:25:55;;;;;;;;;19.25;19.00;;;;;22.62;43.96;101383.50;5073041;28;50005;-73
2022/08/12 03:31:07;;;;;;;;;20.75;18.00;;;;;22.58;43.72;101371.94;5071978;28;50022;-70
2022/08/12 03:33:36;;;;;;;;;17.00;15.25;;;;;22.56;43.75;101371.09;5079486;27;49932;-68
2022/08/12 03:36:09;;;;;;;;;17.25;17.25;;;;;22.48;43.87;101373.03;5073018;28;49732;-70
2022/08/12 03:38:37;;;;;;;;;15.75;14.75;;;;;22.35;43.96;101352.78;5072421;28;50803;-71
2022/08/12 03:41:36;;;;;;;;;20.75;18.50;;;;;22.51;43.99;101381.91;5055361;27;49826;-71
2022/08/12 04:01:01;;;;;;;;;19.50;18.00;;;;;22.26;44.39;101372.56;5071751;28;50194;-70
2022/08/12 04:06:11;;;;;;;;;21.00;17.75;;;;;22.18;44.47;101378.03;5072339;28;49916;-71
2022/08/12 04:08:37;;;;;;;;;17.75;17.75;;;;;22.12;44.59;101372.81;5071917;28;50461;-70
2022/08/12 04:13:49;;;;;;;;;18.50;17.50;;;;;22.05;45.03;101368.44;5071843;28;49739;-69
2022/08/12 04:16:15;;;;;;;;;20.25;18.75;;;;;22.01;45.32;101369.41;5071736;28;49759;-70
2022/08/12 04:18:43;;;;;;;;;17.00;17.00;;;;;21.73;45.10;101320.84;5072021;28;49578;-70
2022/08/12 04:21:09;;;;;;;;;20.00;19.50;;;;;21.86;45.44;101353.59;5071378;28;50402;-69
2022/08/12 04:23:38;;;;;;;;;19.75;18.25;;;;;21.95;45.54;101367.69;5071268;28;49598;-68
2022/08/12 04:26:04;;;;;;;;;20.00;17.75;;;;;21.92;45.56;101374.91;5071920;28;50046;-67
2022/08/12 04:28:30;;;;;;;;;24.75;21.75;;;;;21.78;45.65;101364.41;5071624;28;49727;-68
2022/08/12 04:30:56;;;;;;;;;18.50;18.25;;;;;21.79;45.95;101367.97;5071623;28;49991;-68
2022/08/12 04:33:22;;;;;;;;;19.25;17.00;;;;;21.77;46.01;101365.31;5071417;28;50118;-69
2022/08/12 04:35:48;;;;;;;;;21.25;20.25;;;;;21.71;46.17;101363.66;5071568;28;49723;-69
2022/08/12 04:38:15;;;;;;;;;19.25;17.75;;;;;21.71;46.38;101374.34;5071677;28;49770;-69
2022/08/12 04:40:40;;;;;;;;;22.50;19.25;;;;;21.70;46.42;101374.31;5071337;28;49934;-69
2022/08/12 04:43:06;;;;;;;;;21.00;18.75;;;;;21.69;46.41;101376.13;5071393;28;49884;-69
2022/08/12 04:45:33;;;;;;;;;16.75;16.25;;;;;21.66;46.31;101368.16;5071086;28;49842;-68
2022/08/12 04:48:00;;;;;;;;;21.50;18.25;;;;;21.67;46.02;101372.59;5077661;27;49703;-69
2022/08/12 04:50:27;;;;;;;;;21.25;21.25;;;;;21.69;45.92;101370.78;5075616;27;49856;-69
2022/08/12 04:52:52;;;;;;;;;20.00;20.00;;;;;21.70;46.04;101377.00;5073215;27;49716;-69
2022/08/12 04:55:18;;;;;;;;;18.00;18.00;;;;;21.40;45.94;101322.25;5052647;28;49829;-71
2022/08/12 04:57:43;;;;;;;;;22.00;19.50;;;;;21.40;46.10;101327.59;5071155;28;49878;-72
2022/08/12 05:00:10;;;;;;;;;17.25;16.75;;;;;21.60;46.19;101364.69;5070976;28;49724;-72
2022/08/12 05:02:36;;;;;;;;;17.00;17.00;;;;;21.53;46.21;101352.34;5071024;28;49763;-70
2022/08/12 05:05:03;;;;;;;;;17.50;17.00;;;;;21.62;46.58;101376.25;5071245;28;49992;-69
2022/08/12 05:07:28;;;;;;;;;18.00;18.00;;;;;21.61;46.48;101377.13;5070624;28;49827;-70
2022/08/12 05:09:54;;;;;;;;;19.00;19.00;;;;;21.62;46.33;101378.94;5071097;28;50624;-72
2022/08/12 05:12:19;;;;;;;;;17.50;16.75;;;;;21.63;46.59;101383.38;5070516;28;49794;-72
2022/08/12 05:14:45;;;;;;;;;19.25;18.00;;;;;21.51;46.33;101368.38;5070624;28;49784;-73
2022/08/12 05:17:10;;;;;;;;;20.75;17.50;;;;;21.64;46.39;101383.34;5070821;28;49931;-73
2022/08/12 05:19:36;;;;;;;;;19.75;19.25;;;;;21.62;46.78;101379.81;5070459;28;55508;-70
2022/08/12 05:22:02;;;;;;;;;19.00;17.25;;;;;21.67;46.57;101391.28;5070941;28;50007;-73
2022/08/12 05:24:27;;;;;;;;;21.75;20.25;;;;;21.61;46.75;101380.69;5070734;28;49835;-74
2022/08/12 05:26:53;;;;;;;;;22.50;20.25;;;;;21.71;46.78;101389.44;5071224;28;49775;-72
2022/08/12 05:29:19;;;;;;;;;22.50;22.50;;;;;21.73;46.47;101393.00;5070187;28;49993;-70
2022/08/12 05:31:44;;;;;;;;;17.25;17.25;;;;;21.74;46.58;101394.78;5063732;28;50033;-70
2022/08/12 05:34:13;;;;;;;;;18.50;18.50;;;;;21.70;46.62;101380.56;5070851;28;49833;-71
2022/08/12 05:36:39;;;;;;;;;18.75;15.75;;;;;21.53;46.03;101349.69;5070736;28;49876;-70
2022/08/12 05:39:04;;;;;;;;;26.50;23.75;;;;;21.82;46.18;101375.94;5070676;28;50681;-71
2022/08/12 05:41:33;;;;;;;;;18.50;18.50;;;;;21.84;46.25;101382.16;5070367;28;55764;-70
2022/08/12 05:44:02;;;;;;;;;20.25;19.25;;;;;21.73;46.33;101363.63;5070309;28;49910;-70
2022/08/12 05:46:30;;;;;;;;;20.00;19.25;;;;;21.89;46.41;101396.31;5070798;28;50023;-70
2022/08/12 05:48:57;;;;;;;;;18.75;18.75;;;;;21.91;46.49;101398.06;5070128;28;49716;-70
2022/08/12 05:51:24;;;;;;;;;19.75;18.50;;;;;21.83;46.25;101378.59;5070435;28;49697;-70
2022/08/12 05:53:51;;;;;;;;;24.00;22.00;;;;;21.67;46.35;101345.88;5069847;28;49860;-69
2022/08/12 05:56:36;;;;;;;;;17.25;16.00;;;;;21.89;46.68;101380.28;5070117;28;51184;-70
2022/08/12 05:59:06;;;;;;;;;20.75;20.75;;;;;22.07;46.56;101403.19;5069965;28;49833;-72
2022/08/12 06:01:32;;;;;;;;;20.75;19.75;;;;;21.97;46.52;101379.25;5070623;28;49593;-69
2022/08/12 06:03:59;;;;;;;;;18.00;16.75;;;;;22.15;46.70;101402.16;5069023;28;50168;-69
2022/08/12 06:06:25;;;;;;;;;15.25;15.25;;;;;22.02;46.44;101389.00;5070385;28;49799;-71
2022/08/12 06:08:53;;;;;;;;;18.50;17.25;;;;;22.21;46.43;101399.38;5069559;28;49858;-70
2022/08/12 06:11:23;;;;;;;;;18.00;16.75;;;;;22.16;46.24;101387.00;5070111;28;49762;-69
2022/08/12 06:13:49;;;;;;;;;21.00;20.50;;;;;22.09;46.58;101377.31;5069666;28;49983;-70
2022/08/12 06:16:18;;;;;;;;;17.75;15.75;;;;;22.22;46.53;101401.16;5070133;28;49609;-70
2022/08/12 06:18:44;;;;;;;;;21.50;21.50;;;;;22.09;46.22;101367.47;5069918;28;50457;-70
2022/08/12 06:21:12;;;;;;;;;19.25;18.50;;;;;22.32;46.60;101393.84;5072830;28;49912;-70
2022/08/12 06:23:38;;;;;;;;;19.00;18.25;;;;;22.20;46.05;101368.22;5073039;28;49644;-71
2022/08/12 06:26:07;;;;;;;;;25.75;19.50;;;;;22.43;45.86;101397.22;5055038;28;50349;-71
2022/08/12 06:28:32;;;;;;;;;21.00;19.00;;;;;22.51;45.87;101405.97;5072910;28;50361;-69
2022/08/12 06:30:58;;;;;;;;;20.50;19.50;;;;;22.59;45.91;101399.63;5073051;28;59277;-68
2022/08/12 06:33:24;;;;;;;;;16.25;16.25;;;;;22.64;45.70;101389.69;5073165;28;49856;-70
2022/08/12 06:35:51;;;;;;;;;24.00;21.00;;;;;22.66;45.97;101390.53;5073579;28;49857;-69
2022/08/12 06:38:21;;;;;;;;;25.25;24.25;;;;;22.75;45.89;101398.38;5073035;28;51327;-69
2022/08/12 06:43:34;;;;;;;;;22.00;18.75;;;;;22.74;43.39;101388.59;5068770;28;50044;-70
2022/08/12 06:45:59;;;;;;;;;22.50;20.25;;;;;22.84;41.90;101393.78;5073429;28;49899;-70
2022/08/12 06:48:27;;;;;;;;;27.00;23.00;;;;;22.87;41.87;101395.50;5072464;28;51452;-70
2022/08/12 06:50:55;;;;;;;;;20.75;18.50;;;;;22.82;41.87;101371.47;5073000;28;49857;-70
2022/08/12 06:53:23;;;;;;;;;19.25;16.50;;;;;23.00;40.42;101398.84;5073038;28;49858;-70
2022/08/12 06:55:49;;;;;;;;;17.75;17.75;;;;;22.49;40.13;101324.88;5073398;28;49722;-70
2022/08/12 06:58:15;;;;;;;;;17.00;17.00;;;;;23.05;39.35;101404.97;5072407;28;49851;-69
2022/08/12 07:00:45;;;;;;;;;13.75;13.25;;;;;22.98;39.17;101381.94;5072529;28;49796;-69
2022/08/12 07:03:20;;;;;;;;;19.25;18.25;;;;;23.03;39.23;101390.72;5072384;28;49838;-69
2022/08/12 07:05:46;;;;;;;;;12.00;11.50;;;;;23.10;39.25;101387.91;5073026;28;49927;-69
2022/08/12 07:08:15;;;;;;;;;13.25;12.25;;;;;23.24;39.13;101397.44;5072434;28;49722;-69
2022/08/12 07:10:56;;;;;;;;;14.50;13.75;;;;;23.08;38.81;101359.41;5072533;28;50073;-69
2022/08/12 07:13:23;;;;;;;;;14.00;13.50;;;;;23.32;39.27;101385.63;5072467;28;49929;-70
2022/08/12 07:15:53;;;;;;;;;26.75;19.50;;;;;23.39;38.71;101384.59;5072530;28;49667;-70
2022/08/12 07:18:19;;;;;;;;;23.00;18.00;;;;;23.53;38.77;101396.78;5072138;28;50534;-71
2022/08/12 07:20:49;;;;;;;;;16.50;16.25;;;;;23.49;38.60;101365.63;5072981;28;49795;-86
2022/08/12 07:23:16;;;;;;;;;15.50;14.25;;;;;23.65;37.83;101378.69;5072862;28;49796;-74
2022/08/12 07:25:42;;;;;;;;;14.75;13.25;;;;;23.29;37.73;101312.50;5054238;28;50218;-77
2022/08/12 07:28:13;;;;;;;;;14.50;11.50;;;;;23.86;37.51;101382.63;5072736;28;50830;-73
2022/08/12 07:30:41;;;;;;;;;13.50;13.50;;;;;23.83;37.21;101361.25;5071774;28;49776;-71
2022/08/12 07:33:09;;;;;;;;;14.75;14.25;;;;;23.95;36.76;101360.97;5072567;28;49924;-78
2022/08/12 07:35:44;;;;;;;;;19.25;19.25;;;;;23.72;36.77;101315.06;5079341;27;50019;-73
2022/08/12 07:38:24;;;;;;;;;17.75;15.25;;;;;24.18;36.76;101378.25;5072572;28;50748;-72
2022/08/12 07:41:15;;;;;;;;;22.25;18.00;;;;;24.11;36.67;101353.38;5071849;28;50025;-75
2022/08/12 07:43:47;;;;;;;;;19.75;15.00;;;;;24.36;36.47;101368.88;5068133;28;49886;-75
2022/08/12 07:46:15;;;;;;;;;16.00;15.75;;;;;24.44;35.61;101369.56;5072653;28;49574;-74
2022/08/12 07:48:44;;;;;;;;;19.00;15.50;;;;;23.91;35.94;101256.47;5074403;28;50302;-75
2022/08/12 07:51:10;;;;;;;;;17.00;15.00;;;;;24.69;35.78;101365.28;5071322;27;49825;-76
2022/08/12 07:53:37;;;;;;;;;11.25;10.50;;;;;24.82;34.77;101376.56;5072318;28;49807;-76
2022/08/12 07:56:05;;;;;;;;;14.00;13.50;;;;;24.65;34.61;101331.41;5077356;28;49978;-73
2022/08/12 07:58:31;;;;;;;;;13.00;11.25;;;;;24.58;34.34;101302.94;5073769;28;49996;-75
2022/08/12 08:00:59;;;;;;;;;14.50;12.00;;;;;24.84;34.80;101321.00;5075361;28;49590;-74
2022/08/12 08:03:28;;;;;;;;;18.25;17.25;;;;;24.95;34.00;101332.31;5072379;28;49935;-75
2022/08/12 08:06:00;;;;;;;;;14.50;13.25;;;;;24.96;34.16;101320.63;5072856;27;49863;-76
2022/08/12 08:08:27;;;;;;;;;17.00;15.75;;;;;25.17;34.02;101355.88;5079198;27;50692;-74
2022/08/12 08:13:44;;;;;;;;;13.75;13.75;;;;;25.48;33.62;101364.75;5074171;27;49811;-81
2022/08/12 08:16:14;;;;;;;;;14.25;13.75;;;;;25.25;32.99;101300.97;5078965;27;49614;-75
2022/08/12 08:18:39;;;;;;;;;11.00;10.25;;;;;25.27;32.90;101295.53;5074953;27;49694;-76
2022/08/12 08:21:05;;;;;;;;;13.75;13.75;;;;;25.79;32.39;101355.75;5071698;27;49748;-71
2022/08/12 08:26:33;;;;;;;;;18.25;14.25;;;;;25.87;32.21;101365.31;5076699;27;49972;-78
2022/08/12 08:28:58;;;;;;;;;14.25;14.00;;;;;25.84;32.28;101348.38;5056016;28;50854;-76
2022/08/12 08:31:24;;;;;;;;;21.75;14.00;;;;;26.12;32.16;101369.88;5062373;28;49903;-78
2022/08/12 08:33:49;;;;;;;;;12.75;12.25;;;;;26.20;32.03;101374.06;5056684;27;50173;-72
2022/08/12 08:36:16;;;;;;;;;13.00;12.00;;;;;26.28;31.42;101371.09;5076154;27;50195;-67
2022/08/12 08:38:43;;;;;;;;;16.75;14.00;;;;;26.37;31.05;101351.06;5083289;28;49906;-67
2022/08/12 08:43:58;;;;;;;;;11.25;11.25;;;;;26.41;29.99;101333.88;5085958;27;49321;-66
2022/08/12 08:46:24;;;;;;;;;10.00;9.50;;;;;26.61;29.56;101362.78;5068196;28;49747;-63
2022/08/12 08:48:49;;;;;;;;;10.75;10.25;;;;;26.61;29.42;101342.13;5075698;28;52045;-70
2022/08/12 08:51:15;;;;;;;;;12.25;11.25;;;;;26.82;29.83;101367.38;5077948;28;49677;-69
2022/08/12 08:53:42;;;;;;;;;13.25;12.25;;;;;26.76;29.32;101338.00;5077791;28;49671;-71
2022/08/12 08:56:09;;;;;;;;;8.75;8.75;;;;;27.01;29.89;101359.47;5074042;28;49816;-73
2022/08/12 08:58:37;;;;;;;;;12.50;11.50;;;;;27.13;29.44;101359.06;5059030;28;52707;-74
2022/08/12 09:01:03;;;;;;;;;11.50;10.50;;;;;27.07;29.65;101337.75;5057893;28;49770;-71
2022/08/12 09:03:29;;;;;;;;;10.75;9.50;;;;;27.21;28.45;101367.72;5071828;28;49762;-74
2022/08/12 09:05:55;;;;;;;;;11.00;9.25;;;;;27.15;28.96;101345.53;5075167;28;49576;-73
2022/08/12 09:08:21;;;;;;;;;12.25;7.75;;;;;27.29;28.72;101351.25;5072101;28;49699;-71
2022/08/12 09:10:47;;;;;;;;;7.75;7.75;;;;;27.34;28.75;101366.31;5074266;28;49846;-73
2022/08/12 09:13:31;;;;;;;;;7.00;6.50;;;;;27.43;28.40;101364.22;5072806;28;50091;-74
2022/08/12 09:15:57;;;;;;;;;12.00;10.25;;;;;27.46;28.33;101354.16;5072386;28;49850;-73
2022/08/12 09:18:23;;;;;;;;;9.50;9.25;;;;;27.35;28.68;101329.44;5075817;28;49797;-75
2022/08/12 09:20:49;;;;;;;;;6.00;6.00;;;;;27.58;28.21;101358.19;5072852;28;49804;-71
2022/08/12 09:23:16;;;;;;;;;10.00;8.00;;;;;27.62;28.34;101351.75;5076434;28;49975;-75
2022/08/12 09:25:43;;;;;;;;;9.00;8.00;;;;;27.58;27.83;101340.19;5074332;28;49815;-77
2022/08/12 09:28:09;;;;;;;;;11.25;9.25;;;;;27.68;28.69;101348.81;5063655;28;52670;-68
2022/08/12 09:30:43;;;;;;;;;11.00;8.50;;;;;27.69;27.82;101347.84;5071649;28;49906;-70
2022/08/12 09:33:11;;;;;;;;;12.00;9.50;;;;;27.74;27.00;101345.88;5071844;28;49962;-69
2022/08/12 09:35:42;;;;;;;;;10.25;8.25;;;;;27.79;27.05;101349.22;5071023;28;50061;-70
2022/08/12 09:38:10;;;;;;;;;10.50;7.75;;;;;27.52;26.54;101288.34;5069921;28;49729;-70
2022/08/12 09:40:36;;;;;;;;;8.50;8.50;;;;;27.77;26.14;101323.28;5074998;27;49933;-71
2022/08/12 09:45:48;;;;;;;;;7.25;6.75;;;;;27.98;26.13;101325.06;5065304;28;49711;-68
2022/08/12 09:48:16;;;;;;;;;8.50;8.50;;;;;28.14;25.87;101328.84;5063357;28;49748;-70
2022/08/12 09:50:43;;;;;;;;;7.00;7.00;;;;;28.23;25.91;101331.16;5063688;28;49729;-73
2022/08/12 09:53:10;;;;;;;;;9.00;8.00;;;;;28.07;25.49;101283.31;5066095;28;49764;-72
2022/08/12 09:55:40;;;;;;;;;10.00;9.50;;;;;28.33;25.59;101317.28;5063755;28;50046;-73
2022/08/12 09:58:05;;;;;;;;;6.00;6.00;;;;;28.43;25.72;101330.31;5070021;28;50536;-69
2022/08/12 10:00:33;;;;;;;;;11.50;9.75;;;;;28.43;25.95;101313.22;5075045;28;49696;-69
2022/08/12 10:03:09;;;;;;;;;9.25;8.00;;;;;28.60;25.59;101320.59;5070254;28;49657;-69
2022/08/12 10:05:43;;;;;;;;;9.25;8.25;;;;;28.20;25.98;101234.13;5070198;28;49661;-68
2022/08/12 10:08:16;;;;;;;;;10.00;9.25;;;;;28.71;25.32;101323.66;5070092;28;50398;-68
2022/08/12 10:13:41;;;;;;;;;9.00;8.75;;;;;28.83;25.46;101303.31;5069952;28;50556;-67
2022/08/12 10:16:17;;;;;;;;;11.50;8.25;;;;;28.94;26.11;101301.88;5070898;28;50389;-67
2022/08/12 10:19:02;;;;;;;;;9.25;9.25;;;;;28.91;26.33;101277.72;5068748;28;50823;-70
2022/08/12 10:21:35;;;;;;;;;6.00;6.00;;;;;28.97;24.98;101287.38;5068466;28;49872;-70
2022/08/12 10:24:09;;;;;;;;;8.00;6.00;;;;;28.89;25.35;101263.41;5069254;27;49740;-69
2022/08/12 10:29:38;;;;;;;;;8.25;7.00;;;;;29.19;24.45;101282.69;5069154;28;50317;-70
2022/08/12 10:32:08;;;;;;;;;7.00;6.50;;;;;29.40;23.85;101288.84;5068837;28;49975;-70
2022/08/12 10:34:34;;;;;;;;;6.25;6.25;;;;;29.44;23.94;101278.78;5070491;28;49833;-70
2022/08/12 10:37:02;;;;;;;;;8.50;6.75;;;;;29.55;23.34;101266.50;5052976;28;50041;-70
2022/08/12 10:39:34;;;;;;;;;7.50;6.00;;;;;29.79;23.04;101296.84;5069061;28;49713;-70
2022/08/12 10:44:45;;;;;;;;;4.75;4.75;;;;;29.83;22.83;101268.69;5067837;28;50006;-71
2022/08/12 10:47:11;;;;;;;;;6.00;6.00;;;;;29.97;23.19;101275.19;5068199;28;50036;-71
2022/08/12 10:49:36;;;;;;;;;6.25;6.25;;;;;29.99;22.94;101273.28;5072362;28;49892;-71
2022/08/12 10:52:03;;;;;;;;;6.50;6.50;;;;;29.92;23.12;101264.63;5069994;28;49765;-71
2022/08/12 10:54:29;;;;;;;;;5.00;5.00;;;;;29.98;23.08;101250.75;5069800;28;49756;-71
2022/08/12 10:56:56;;;;;;;;;6.25;6.25;;;;;30.15;23.16;101266.16;5069846;28;49767;-70
2022/08/12 10:59:23;;;;;;;;;5.25;5.25;;;;;30.08;23.02;101264.72;5069280;28;50631;-72
2022/08/12 11:01:51;;;;;;;;;10.50;7.50;;;;;29.99;23.21;101273.28;5069763;28;49881;-68
2022/08/12 11:04:17;;;;;;;;;7.75;6.75;;;;;30.02;23.36;101254.19;5069864;28;49730;-69
2022/08/12 11:06:46;;;;;;;;;5.75;5.75;;;;;30.06;22.95;101247.66;5071664;28;49758;-69
2022/08/12 11:09:33;;;;;;;;;6.75;6.75;;;;;30.15;22.85;101255.31;5073133;28;49895;-70
2022/08/12 11:12:05;;;;;;;;;6.00;5.00;;;;;30.16;23.00;101225.44;5048341;28;49818;-74
2022/08/12 11:14:32;;;;;;;;;5.50;5.50;;;;;30.17;22.87;101218.19;5066462;28;49732;-71
2022/08/12 11:17:00;;;;;;;;;3.00;3.00;;;;;30.32;23.01;101241.75;5073171;28;49852;-69
2022/08/12 11:19:26;;;;;;;;;9.00;7.75;;;;;30.36;23.34;101239.75;5072560;28;49653;-70
2022/08/12 11:21:54;;;;;;;;;7.75;7.75;;;;;30.42;23.16;101239.44;5073131;28;49740;-71
2022/08/12 11:24:20;;;;;;;;;5.00;5.00;;;;;30.36;23.27;101240.63;5066394;28;49811;-69
2022/08/12 11:26:45;;;;;;;;;7.25;6.75;;;;;30.30;23.12;101215.69;5072330;28;50130;-70
2022/08/12 11:29:11;;;;;;;;;7.75;5.75;;;;;30.46;23.53;101219.31;5072739;28;50625;-69
2022/08/12 11:31:36;;;;;;;;;8.00;8.00;;;;;30.35;23.33;101189.25;5071784;28;53035;-69
2022/08/12 11:34:01;;;;;;;;;9.25;8.25;;;;;30.40;23.42;101184.44;5073253;28;49806;-69
2022/08/12 11:36:27;;;;;;;;;7.25;7.25;;;;;30.60;23.01;101210.47;5072811;28;49826;-69
2022/08/12 11:38:54;;;;;;;;;5.00;5.00;;;;;30.77;21.16;101215.81;5072062;28;49778;-69
2022/08/12 11:41:20;;;;;;;;;5.50;5.50;;;;;30.83;21.85;101198.34;5071650;28;49927;-69
2022/08/12 11:43:45;;;;;;;;;6.25;6.25;;;;;31.02;21.54;101204.47;5070888;28;49885;-69
2022/08/12 11:46:10;;;;;;;;;8.25;7.25;;;;;30.85;21.63;101191.00;5071771;28;49945;-72
2022/08/12 11:48:38;;;;;;;;;6.00;6.00;;;;;31.02;21.07;101197.19;5076127;28;49699;-69
2022/08/12 11:51:06;;;;;;;;;8.75;8.25;;;;;31.09;21.41;101203.16;5077404;28;49715;-69
2022/08/12 11:53:32;;;;;;;;;6.25;6.25;;;;;30.51;21.49;101116.13;5072366;28;49882;-70
2022/08/12 11:55:58;;;;;;;;;5.00;5.00;;;;;31.01;21.72;101202.72;5075995;28;49808;-72
2022/08/12 11:58:23;;;;;;;;;6.50;6.00;;;;;31.11;21.32;101192.22;5073129;28;50456;-74
2022/08/12 12:00:48;;;;;;;;;6.00;6.00;;;;;31.25;21.56;101203.16;5070724;28;50046;-72
2022/08/12 12:03:14;;;;;;;;;7.25;7.25;;;;;31.04;21.55;101176.28;5076538;28;49609;-70
2022/08/12 12:05:39;;;;;;;;;7.25;7.25;;;;;31.05;21.75;101174.44;5069309;28;49904;-72
2022/08/12 12:08:05;;;;;;;;;7.00;7.00;;;;;31.19;21.58;101182.66;5071162;28;50450;-70
2022/08/12 12:10:30;;;;;;;;;0.00;0.00;;;;;31.22;21.83;101168.94;5052124;28;49972;-70
2022/08/12 12:12:55;;;;;;;;;7.00;7.00;;;;;31.29;21.59;101166.75;5070968;28;49790;-71
2022/08/12 12:15:21;;;;;;;;;6.00;6.00;;;;;31.32;21.32;101186.44;5070383;28;49807;-71
2022/08/12 12:17:48;;;;;;;;;6.75;6.75;;;;;31.37;21.88;101179.88;5068390;28;50638;-73
2022/08/12 12:20:14;;;;;;;;;6.25;6.25;;;;;31.43;21.51;101169.50;5069006;28;49921;-74
2022/08/12 12:22:41;;;;;;;;;6.00;6.00;;;;;31.48;21.58;101166.53;5051889;28;50181;-69
2022/08/12 12:25:08;;;;;;;;;8.25;7.00;;;;;31.35;21.55;101139.25;5070475;28;49824;-70
2022/08/12 12:27:47;;;;;;;;;6.00;6.00;;;;;31.48;21.40;101161.97;5086919;28;50834;-71
2022/08/12 12:30:13;;;;;;;;;7.00;7.00;;;;;31.49;21.36;101171.00;5075666;28;49750;-72
2022/08/12 12:32:39;;;;;;;;;6.00;6.00;;;;;31.39;20.39;101131.81;5078133;27;49743;-72
2022/08/12 12:35:04;;;;;;;;;10.25;6.75;;;;;31.51;20.39;101142.78;5086377;28;49366;-74
2022/08/12 12:37:29;;;;;;;;;6.25;6.00;;;;;31.69;20.33;101154.38;5087083;28;50517;-76
2022/08/12 12:39:56;;;;;;;;;7.75;6.75;;;;;31.66;21.13;101132.84;5087978;28;49331;-77
2022/08/12 12:42:22;;;;;;;;;7.00;6.50;;;;;31.57;20.91;101120.72;5087449;28;49464;-74
2022/08/12 12:44:48;;;;;;;;;6.25;6.25;;;;;31.63;20.61;101128.47;5087204;28;49722;-73
2022/08/12 12:47:15;;;;;;;;;4.25;4.25;;;;;31.67;19.92;101134.59;5087146;28;49993;-72
2022/08/12 12:49:41;;;;;;;;;6.00;6.00;;;;;31.83;19.92;101150.81;5087759;28;49534;-71
2022/08/12 12:52:06;;;;;;;;;10.50;7.00;;;;;31.85;20.43;101140.78;5087978;28;49828;-70
2022/08/12 12:54:31;;;;;;;;;9.50;7.75;;;;;31.90;20.01;101147.66;5069329;28;49737;-71
2022/08/12 12:56:57;;;;;;;;;7.25;7.25;;;;;31.97;19.84;101148.16;5081000;28;49793;-70
2022/08/12 12:59:22;;;;;;;;;7.50;7.50;;;;;31.64;20.34;101077.78;5075474;28;49899;-70
2022/08/12 13:01:48;;;;;;;;;7.25;7.25;;;;;32.01;20.23;101127.09;5071524;28;49760;-71
2022/08/12 13:04:13;;;;;;;;;6.50;6.00;;;;;32.00;20.02;101109.06;5071520;28;49626;-70
2022/08/12 13:06:40;;;;;;;;;6.75;6.25;;;;;32.15;20.36;101133.41;5071298;28;49863;-70
2022/08/12 13:09:05;;;;;;;;;10.00;8.00;;;;;32.16;20.05;101128.84;5071339;28;49887;-70